sensor_id;sensor_type;location;lat;lon;timestamp;P1;durP1;ratioP1;P2;durP2;ratioP2
9052;SDS011;4561;47.450;7.516;2023-05-13T00:01:50;4.20;;;3.90;;
9052;SDS011;4561;47.450;7.516;2023-05-13T00:05:11;4.90;;;3.70;;
9052;SDS011;4561;47.450;7.516;2023-05-13T00:08:31;4.90;;;4.50;;
9052;SDS011;4561;47.450;7.516;2023-05-13T00:11:51;5.30;;;4.70;;
9052;SDS011;4561;47.450;7.516;2023-05-13T00:15:14;5.17;;;4.63;;
9052;SDS011;4561;47.450;7.516;2023-05-13T00:18:37;4.80;;;4.40;;
9052;SDS011;4561;47.450;7.516;2023-05-13T00:22:00;5.10;;;4.70;;
9052;SDS011;4561;47.450;7.516;2023-05-13T00:25:20;4.80;;;4.30;;
9052;SDS011;4561;47.450;7.516;2023-05-13T00:28:41;4.90;;;4.50;;
9052;SDS011;4561;47.450;7.516;2023-05-13T00:32:01;6.43;;;5.00;;
9052;SDS011;4561;47.450;7.516;2023-05-13T00:35:22;5.37;;;4.87;;
9052;SDS011;4561;47.450;7.516;2023-05-13T00:38:42;5.17;;;4.77;;
9052;SDS011;4561;47.450;7.516;2023-05-13T00:42:05;6.83;;;6.23;;
9052;SDS011;4561;47.450;7.516;2023-05-13T00:45:28;6.10;;;5.60;;
9052;SDS011;4561;47.450;7.516;2023-05-13T00:48:49;7.90;;;5.80;;
9052;SDS011;4561;47.450;7.516;2023-05-13T00:52:10;6.73;;;6.20;;
9052;SDS011;4561;47.450;7.516;2023-05-13T00:55:30;7.73;;;6.77;;
9052;SDS011;4561;47.450;7.516;2023-05-13T00:58:53;10.43;;;6.83;;
9052;SDS011;4561;47.450;7.516;2023-05-13T01:09:40;7.50;;;6.90;;
9052;SDS011;4561;47.450;7.516;2023-05-13T01:13:10;8.03;;;5.43;;
9052;SDS011;4561;47.450;7.516;2023-05-13T01:17:18;6.50;;;5.90;;
9052;SDS011;4561;47.450;7.516;2023-05-13T01:20:20;7.13;;;6.50;;
9052;SDS011;4561;47.450;7.516;2023-05-13T01:23:44;7.43;;;6.83;;
9052;SDS011;4561;47.450;7.516;2023-05-13T01:27:06;8.57;;;7.70;;
9052;SDS011;4561;47.450;7.516;2023-05-13T01:30:27;10.00;;;9.10;;
9052;SDS011;4561;47.450;7.516;2023-05-13T01:33:47;9.53;;;8.60;;
9052;SDS011;4561;47.450;7.516;2023-05-13T01:37:08;10.30;;;8.83;;
9052;SDS011;4561;47.450;7.516;2023-05-13T01:40:30;8.97;;;8.17;;
9052;SDS011;4561;47.450;7.516;2023-05-13T01:43:51;9.60;;;8.57;;
9052;SDS011;4561;47.450;7.516;2023-05-13T01:47:12;8.90;;;8.00;;
9052;SDS011;4561;47.450;7.516;2023-05-13T01:50:32;9.73;;;8.93;;
9052;SDS011;4561;47.450;7.516;2023-05-13T01:53:53;9.83;;;8.93;;
9052;SDS011;4561;47.450;7.516;2023-05-13T01:57:15;9.40;;;8.60;;
9052;SDS011;4561;47.450;7.516;2023-05-13T02:00:38;10.13;;;9.23;;
9052;SDS011;4561;47.450;7.516;2023-05-13T02:03:58;11.43;;;10.33;;
9052;SDS011;4561;47.450;7.516;2023-05-13T02:07:19;11.57;;;10.57;;
9052;SDS011;4561;47.450;7.516;2023-05-13T02:10:40;11.40;;;10.30;;
9052;SDS011;4561;47.450;7.516;2023-05-13T02:14:00;13.10;;;10.57;;
9052;SDS011;4561;47.450;7.516;2023-05-13T02:17:20;10.77;;;9.87;;
9052;SDS011;4561;47.450;7.516;2023-05-13T02:20:42;11.17;;;10.17;;
9052;SDS011;4561;47.450;7.516;2023-05-13T02:24:03;10.23;;;9.23;;
9052;SDS011;4561;47.450;7.516;2023-05-13T02:27:24;10.63;;;9.73;;
9052;SDS011;4561;47.450;7.516;2023-05-13T02:30:47;12.60;;;11.33;;
9052;SDS011;4561;47.450;7.516;2023-05-13T02:34:07;9.83;;;8.77;;
9052;SDS011;4561;47.450;7.516;2023-05-13T02:37:27;10.03;;;9.03;;
9052;SDS011;4561;47.450;7.516;2023-05-13T02:40:49;11.23;;;9.63;;
9052;SDS011;4561;47.450;7.516;2023-05-13T02:44:10;10.83;;;9.83;;
9052;SDS011;4561;47.450;7.516;2023-05-13T02:47:30;11.80;;;10.70;;
9052;SDS011;4561;47.450;7.516;2023-05-13T02:50:53;10.77;;;9.83;;
9052;SDS011;4561;47.450;7.516;2023-05-13T02:54:13;12.33;;;11.30;;
9052;SDS011;4561;47.450;7.516;2023-05-13T02:57:34;11.83;;;10.80;;
9052;SDS011;4561;47.450;7.516;2023-05-13T03:00:57;12.73;;;11.43;;
9052;SDS011;4561;47.450;7.516;2023-05-13T03:04:17;12.77;;;11.63;;
9052;SDS011;4561;47.450;7.516;2023-05-13T03:07:37;12.63;;;11.53;;
9052;SDS011;4561;47.450;7.516;2023-05-13T03:11:00;15.53;;;14.03;;
9052;SDS011;4561;47.450;7.516;2023-05-13T03:14:21;12.67;;;11.43;;
9052;SDS011;4561;47.450;7.516;2023-05-13T03:17:44;14.93;;;13.43;;
9052;SDS011;4561;47.450;7.516;2023-05-13T03:21:07;13.30;;;11.97;;
9052;SDS011;4561;47.450;7.516;2023-05-13T03:24:28;13.37;;;12.27;;
9052;SDS011;4561;47.450;7.516;2023-05-13T03:27:48;12.20;;;11.10;;
9052;SDS011;4561;47.450;7.516;2023-05-13T03:31:09;10.90;;;9.83;;
9052;SDS011;4561;47.450;7.516;2023-05-13T03:34:29;10.77;;;9.77;;
9052;SDS011;4561;47.450;7.516;2023-05-13T03:37:52;12.30;;;11.30;;
9052;SDS011;4561;47.450;7.516;2023-05-13T03:41:12;14.73;;;13.23;;
9052;SDS011;4561;47.450;7.516;2023-05-13T03:44:36;15.33;;;13.93;;
9052;SDS011;4561;47.450;7.516;2023-05-13T03:47:56;15.70;;;14.37;;
9052;SDS011;4561;47.450;7.516;2023-05-13T03:51:17;14.50;;;13.30;;
9052;SDS011;4561;47.450;7.516;2023-05-13T03:54:37;13.97;;;12.70;;
9052;SDS011;4561;47.450;7.516;2023-05-13T03:57:58;13.13;;;12.13;;
9052;SDS011;4561;47.450;7.516;2023-05-13T04:01:18;13.90;;;12.37;;
9052;SDS011;4561;47.450;7.516;2023-05-13T04:04:41;13.13;;;12.03;;
9052;SDS011;4561;47.450;7.516;2023-05-13T04:08:01;13.57;;;12.40;;
9052;SDS011;4561;47.450;7.516;2023-05-13T04:11:22;13.50;;;12.20;;
9052;SDS011;4561;47.450;7.516;2023-05-13T04:14:45;13.93;;;12.73;;
9052;SDS011;4561;47.450;7.516;2023-05-13T04:18:05;21.03;;;14.23;;
9052;SDS011;4561;47.450;7.516;2023-05-13T04:21:26;15.57;;;14.10;;
9052;SDS011;4561;47.450;7.516;2023-05-13T04:24:48;12.57;;;11.47;;
9052;SDS011;4561;47.450;7.516;2023-05-13T04:28:15;13.97;;;12.77;;
9052;SDS011;4561;47.450;7.516;2023-05-13T04:31:37;12.37;;;11.27;;
9052;SDS011;4561;47.450;7.516;2023-05-13T04:34:57;14.03;;;12.63;;
9052;SDS011;4561;47.450;7.516;2023-05-13T04:38:20;13.00;;;11.90;;
9052;SDS011;4561;47.450;7.516;2023-05-13T04:41:41;14.07;;;12.87;;
9052;SDS011;4561;47.450;7.516;2023-05-13T04:45:01;15.07;;;13.67;;
9052;SDS011;4561;47.450;7.516;2023-05-13T04:48:24;13.87;;;12.47;;
9052;SDS011;4561;47.450;7.516;2023-05-13T04:51:47;13.27;;;11.97;;
9052;SDS011;4561;47.450;7.516;2023-05-13T04:55:08;12.60;;;11.47;;
9052;SDS011;4561;47.450;7.516;2023-05-13T04:58:31;12.10;;;10.83;;
9052;SDS011;4561;47.450;7.516;2023-05-13T05:01:51;12.70;;;11.40;;
9052;SDS011;4561;47.450;7.516;2023-05-13T05:05:12;11.67;;;10.27;;
9052;SDS011;4561;47.450;7.516;2023-05-13T05:08:35;10.40;;;9.60;;
9052;SDS011;4561;47.450;7.516;2023-05-13T05:11:55;11.13;;;10.17;;
9052;SDS011;4561;47.450;7.516;2023-05-13T05:15:16;10.27;;;9.13;;
9052;SDS011;4561;47.450;7.516;2023-05-13T05:18:36;10.13;;;9.23;;
9052;SDS011;4561;47.450;7.516;2023-05-13T05:21:57;8.67;;;7.87;;
9052;SDS011;4561;47.450;7.516;2023-05-13T05:25:17;9.23;;;8.33;;
9052;SDS011;4561;47.450;7.516;2023-05-13T05:28:37;9.23;;;8.20;;
9052;SDS011;4561;47.450;7.516;2023-05-13T05:32:01;9.83;;;9.03;;
9052;SDS011;4561;47.450;7.516;2023-05-13T05:35:21;10.33;;;9.43;;
9052;SDS011;4561;47.450;7.516;2023-05-13T05:38:48;10.27;;;9.27;;
9052;SDS011;4561;47.450;7.516;2023-05-13T05:42:11;10.53;;;9.63;;
9052;SDS011;4561;47.450;7.516;2023-05-13T05:45:34;10.93;;;10.03;;
9052;SDS011;4561;47.450;7.516;2023-05-13T05:48:57;10.00;;;9.07;;
9052;SDS011;4561;47.450;7.516;2023-05-13T05:52:17;10.63;;;9.63;;
9052;SDS011;4561;47.450;7.516;2023-05-13T05:55:38;9.97;;;9.13;;
9052;SDS011;4561;47.450;7.516;2023-05-13T05:58:58;9.70;;;8.83;;
9052;SDS011;4561;47.450;7.516;2023-05-13T06:02:21;10.23;;;9.27;;
9052;SDS011;4561;47.450;7.516;2023-05-13T06:05:44;10.77;;;9.87;;
9052;SDS011;4561;47.450;7.516;2023-05-13T06:09:04;9.67;;;8.87;;
9052;SDS011;4561;47.450;7.516;2023-05-13T06:12:25;10.13;;;9.20;;
9052;SDS011;4561;47.450;7.516;2023-05-13T06:15:45;10.90;;;8.93;;
9052;SDS011;4561;47.450;7.516;2023-05-13T06:19:09;8.60;;;7.90;;
9052;SDS011;4561;47.450;7.516;2023-05-13T06:22:30;8.53;;;7.83;;
9052;SDS011;4561;47.450;7.516;2023-05-13T06:25:50;8.07;;;7.37;;
9052;SDS011;4561;47.450;7.516;2023-05-13T06:29:11;9.97;;;9.00;;
9052;SDS011;4561;47.450;7.516;2023-05-13T06:32:34;8.67;;;7.40;;
9052;SDS011;4561;47.450;7.516;2023-05-13T06:35:55;8.97;;;8.17;;
9052;SDS011;4561;47.450;7.516;2023-05-13T06:39:15;9.33;;;8.53;;
9052;SDS011;4561;47.450;7.516;2023-05-13T06:42:38;9.10;;;8.40;;
9052;SDS011;4561;47.450;7.516;2023-05-13T06:46:00;8.97;;;8.17;;
9052;SDS011;4561;47.450;7.516;2023-05-13T06:49:20;8.27;;;7.67;;
9052;SDS011;4561;47.450;7.516;2023-05-13T06:52:41;8.60;;;7.90;;
9052;SDS011;4561;47.450;7.516;2023-05-13T06:56:01;8.13;;;7.53;;
9052;SDS011;4561;47.450;7.516;2023-05-13T06:59:22;8.70;;;8.00;;
9052;SDS011;4561;47.450;7.516;2023-05-13T07:02:44;8.30;;;7.50;;
9052;SDS011;4561;47.450;7.516;2023-05-13T07:06:07;7.63;;;7.03;;
9052;SDS011;4561;47.450;7.516;2023-05-13T07:09:27;8.37;;;7.67;;
9052;SDS011;4561;47.450;7.516;2023-05-13T07:12:47;7.53;;;6.83;;
9052;SDS011;4561;47.450;7.516;2023-05-13T07:16:10;7.63;;;7.03;;
9052;SDS011;4561;47.450;7.516;2023-05-13T07:19:31;7.33;;;6.73;;
9052;SDS011;4561;47.450;7.516;2023-05-13T07:22:51;7.57;;;6.97;;
9052;SDS011;4561;47.450;7.516;2023-05-13T07:26:11;7.30;;;6.70;;
9052;SDS011;4561;47.450;7.516;2023-05-13T07:29:34;8.10;;;7.47;;
9052;SDS011;4561;47.450;7.516;2023-05-13T07:32:58;8.90;;;6.97;;
9052;SDS011;4561;47.450;7.516;2023-05-13T07:36:18;8.20;;;7.57;;
9052;SDS011;4561;47.450;7.516;2023-05-13T07:39:42;7.73;;;6.87;;
9052;SDS011;4561;47.450;7.516;2023-05-13T07:43:02;6.63;;;6.03;;
9052;SDS011;4561;47.450;7.516;2023-05-13T07:46:25;6.43;;;5.93;;
9052;SDS011;4561;47.450;7.516;2023-05-13T07:49:45;7.63;;;6.87;;
9052;SDS011;4561;47.450;7.516;2023-05-13T07:53:09;7.07;;;6.20;;
9052;SDS011;4561;47.450;7.516;2023-05-13T07:56:29;8.33;;;6.10;;
9052;SDS011;4561;47.450;7.516;2023-05-13T07:59:52;9.27;;;6.40;;
9052;SDS011;4561;47.450;7.516;2023-05-13T08:03:13;5.83;;;5.43;;
9052;SDS011;4561;47.450;7.516;2023-05-13T08:06:34;6.00;;;5.50;;
9052;SDS011;4561;47.450;7.516;2023-05-13T08:09:54;6.70;;;6.20;;
9052;SDS011;4561;47.450;7.516;2023-05-13T08:13:15;6.47;;;5.97;;
9052;SDS011;4561;47.450;7.516;2023-05-13T08:16:40;6.40;;;5.63;;
9052;SDS011;4561;47.450;7.516;2023-05-13T08:20:01;6.83;;;5.30;;
9052;SDS011;4561;47.450;7.516;2023-05-13T08:23:21;5.23;;;4.80;;
9052;SDS011;4561;47.450;7.516;2023-05-13T08:26:42;6.43;;;5.93;;
9052;SDS011;4561;47.450;7.516;2023-05-13T08:30:03;10.93;;;9.43;;
9052;SDS011;4561;47.450;7.516;2023-05-13T08:33:28;6.30;;;5.80;;
9052;SDS011;4561;47.450;7.516;2023-05-13T08:36:49;5.60;;;5.20;;
9052;SDS011;4561;47.450;7.516;2023-05-13T08:40:09;5.33;;;4.93;;
9052;SDS011;4561;47.450;7.516;2023-05-13T08:43:30;5.50;;;5.00;;
9052;SDS011;4561;47.450;7.516;2023-05-13T08:46:52;5.73;;;5.23;;
9052;SDS011;4561;47.450;7.516;2023-05-13T08:50:35;5.63;;;4.90;;
9052;SDS011;4561;47.450;7.516;2023-05-13T08:53:56;5.00;;;4.60;;
9052;SDS011;4561;47.450;7.516;2023-05-13T08:57:17;5.23;;;4.60;;
9052;SDS011;4561;47.450;7.516;2023-05-13T09:00:38;5.30;;;4.80;;
9052;SDS011;4561;47.450;7.516;2023-05-13T09:04:00;5.13;;;4.73;;
9052;SDS011;4561;47.450;7.516;2023-05-13T09:07:25;5.43;;;4.97;;
9052;SDS011;4561;47.450;7.516;2023-05-13T09:10:47;5.40;;;4.90;;
9052;SDS011;4561;47.450;7.516;2023-05-13T09:14:08;5.23;;;4.83;;
9052;SDS011;4561;47.450;7.516;2023-05-13T09:17:30;5.70;;;5.10;;
9052;SDS011;4561;47.450;7.516;2023-05-13T09:20:51;5.70;;;5.20;;
9052;SDS011;4561;47.450;7.516;2023-05-13T09:24:14;7.97;;;5.40;;
9052;SDS011;4561;47.450;7.516;2023-05-13T09:27:40;6.97;;;5.33;;
9052;SDS011;4561;47.450;7.516;2023-05-13T09:31:07;5.80;;;5.40;;
9052;SDS011;4561;47.450;7.516;2023-05-13T09:34:32;6.00;;;5.40;;
9052;SDS011;4561;47.450;7.516;2023-05-13T09:37:58;5.27;;;4.87;;
9052;SDS011;4561;47.450;7.516;2023-05-13T09:41:19;8.73;;;5.03;;
9052;SDS011;4561;47.450;7.516;2023-05-13T09:44:39;6.10;;;5.60;;
9052;SDS011;4561;47.450;7.516;2023-05-13T09:47:59;5.70;;;5.20;;
9052;SDS011;4561;47.450;7.516;2023-05-13T09:51:26;5.90;;;5.30;;
9052;SDS011;4561;47.450;7.516;2023-05-13T09:54:49;5.63;;;5.17;;
9052;SDS011;4561;47.450;7.516;2023-05-13T09:58:10;5.37;;;4.87;;
9052;SDS011;4561;47.450;7.516;2023-05-13T10:01:34;6.20;;;5.60;;
9052;SDS011;4561;47.450;7.516;2023-05-13T10:04:57;6.00;;;5.30;;
9052;SDS011;4561;47.450;7.516;2023-05-13T10:08:18;5.47;;;4.97;;
9052;SDS011;4561;47.450;7.516;2023-05-13T10:11:38;4.90;;;4.50;;
9052;SDS011;4561;47.450;7.516;2023-05-13T10:15:01;5.70;;;5.17;;
9052;SDS011;4561;47.450;7.516;2023-05-13T10:18:25;5.00;;;4.60;;
9052;SDS011;4561;47.450;7.516;2023-05-13T10:21:47;5.63;;;5.03;;
9052;SDS011;4561;47.450;7.516;2023-05-13T10:25:08;6.13;;;4.63;;
9052;SDS011;4561;47.450;7.516;2023-05-13T10:28:29;5.33;;;4.93;;
9052;SDS011;4561;47.450;7.516;2023-05-13T10:31:52;6.17;;;5.67;;
9052;SDS011;4561;47.450;7.516;2023-05-13T10:35:16;5.30;;;4.87;;
9052;SDS011;4561;47.450;7.516;2023-05-13T10:45:44;5.83;;;5.33;;
9052;SDS011;4561;47.450;7.516;2023-05-13T10:49:05;6.87;;;5.00;;
9052;SDS011;4561;47.450;7.516;2023-05-13T10:52:42;5.87;;;5.37;;
9052;SDS011;4561;47.450;7.516;2023-05-13T10:56:08;6.00;;;4.60;;
9052;SDS011;4561;47.450;7.516;2023-05-13T10:59:28;5.13;;;4.73;;
9052;SDS011;4561;47.450;7.516;2023-05-13T11:02:53;5.77;;;5.33;;
9052;SDS011;4561;47.450;7.516;2023-05-13T11:06:16;5.63;;;5.03;;
9052;SDS011;4561;47.450;7.516;2023-05-13T11:09:38;5.13;;;4.63;;
9052;SDS011;4561;47.450;7.516;2023-05-13T11:16:35;5.20;;;4.70;;
9052;SDS011;4561;47.450;7.516;2023-05-13T11:19:56;5.93;;;5.53;;
9052;SDS011;4561;47.450;7.516;2023-05-13T11:23:17;5.40;;;5.00;;
9052;SDS011;4561;47.450;7.516;2023-05-13T11:26:42;5.63;;;5.23;;
9052;SDS011;4561;47.450;7.516;2023-05-13T11:30:24;5.40;;;4.90;;
9052;SDS011;4561;47.450;7.516;2023-05-13T11:34:28;5.10;;;4.57;;
9052;SDS011;4561;47.450;7.516;2023-05-13T11:37:41;5.30;;;4.90;;
9052;SDS011;4561;47.450;7.516;2023-05-13T11:41:05;4.83;;;4.50;;
9052;SDS011;4561;47.450;7.516;2023-05-13T11:44:27;5.53;;;4.60;;
9052;SDS011;4561;47.450;7.516;2023-05-13T11:47:48;5.33;;;4.63;;
9052;SDS011;4561;47.450;7.516;2023-05-13T11:51:08;5.20;;;4.73;;
9052;SDS011;4561;47.450;7.516;2023-05-13T11:54:29;4.90;;;4.50;;
9052;SDS011;4561;47.450;7.516;2023-05-13T11:57:49;5.13;;;4.63;;
9052;SDS011;4561;47.450;7.516;2023-05-13T12:01:15;5.00;;;4.60;;
9052;SDS011;4561;47.450;7.516;2023-05-13T12:04:35;5.27;;;4.77;;
9052;SDS011;4561;47.450;7.516;2023-05-13T12:07:56;5.43;;;4.70;;
9052;SDS011;4561;47.450;7.516;2023-05-13T12:11:17;5.53;;;4.57;;
9052;SDS011;4561;47.450;7.516;2023-05-13T12:14:37;5.23;;;4.83;;
9052;SDS011;4561;47.450;7.516;2023-05-13T12:18:00;4.63;;;4.33;;
9052;SDS011;4561;47.450;7.516;2023-05-13T12:21:21;5.37;;;4.97;;
9052;SDS011;4561;47.450;7.516;2023-05-13T12:24:44;4.97;;;4.57;;
9052;SDS011;4561;47.450;7.516;2023-05-13T12:31:50;4.80;;;4.40;;
9052;SDS011;4561;47.450;7.516;2023-05-13T12:35:22;4.37;;;3.97;;
9052;SDS011;4561;47.450;7.516;2023-05-13T12:38:55;5.33;;;4.80;;
9052;SDS011;4561;47.450;7.516;2023-05-13T12:42:21;4.97;;;4.57;;
9052;SDS011;4561;47.450;7.516;2023-05-13T12:45:42;4.77;;;4.37;;
9052;SDS011;4561;47.450;7.516;2023-05-13T12:49:04;4.70;;;4.30;;
9052;SDS011;4561;47.450;7.516;2023-05-13T12:52:25;4.53;;;3.97;;
9052;SDS011;4561;47.450;7.516;2023-05-13T12:55:45;5.10;;;4.60;;
9052;SDS011;4561;47.450;7.516;2023-05-13T12:59:06;4.97;;;4.57;;
9052;SDS011;4561;47.450;7.516;2023-05-13T13:02:27;4.40;;;4.00;;
9052;SDS011;4561;47.450;7.516;2023-05-13T13:05:48;4.33;;;3.93;;
9052;SDS011;4561;47.450;7.516;2023-05-13T13:09:08;4.87;;;4.50;;
9052;SDS011;4561;47.450;7.516;2023-05-13T13:12:29;4.20;;;3.90;;
9052;SDS011;4561;47.450;7.516;2023-05-13T13:15:49;4.33;;;3.93;;
9052;SDS011;4561;47.450;7.516;2023-05-13T13:19:10;4.13;;;3.83;;
9052;SDS011;4561;47.450;7.516;2023-05-13T13:22:30;5.03;;;4.63;;
9052;SDS011;4561;47.450;7.516;2023-05-13T13:25:51;5.13;;;4.73;;
9052;SDS011;4561;47.450;7.516;2023-05-13T13:29:11;5.03;;;4.47;;
9052;SDS011;4561;47.450;7.516;2023-05-13T13:32:31;5.00;;;4.60;;
9052;SDS011;4561;47.450;7.516;2023-05-13T13:35:55;4.80;;;4.40;;
9052;SDS011;4561;47.450;7.516;2023-05-13T13:39:15;4.07;;;3.77;;
9052;SDS011;4561;47.450;7.516;2023-05-13T13:42:35;4.83;;;4.20;;
9052;SDS011;4561;47.450;7.516;2023-05-13T13:45:58;3.80;;;3.50;;
9052;SDS011;4561;47.450;7.516;2023-05-13T13:49:18;4.20;;;3.80;;
9052;SDS011;4561;47.450;7.516;2023-05-13T13:52:40;3.90;;;3.60;;
9052;SDS011;4561;47.450;7.516;2023-05-13T13:56:04;3.87;;;3.60;;
9052;SDS011;4561;47.450;7.516;2023-05-13T13:59:24;3.87;;;3.47;;
9052;SDS011;4561;47.450;7.516;2023-05-13T14:02:45;3.27;;;3.00;;
9052;SDS011;4561;47.450;7.516;2023-05-13T14:06:05;3.30;;;3.10;;
9052;SDS011;4561;47.450;7.516;2023-05-13T14:09:26;3.37;;;3.10;;
9052;SDS011;4561;47.450;7.516;2023-05-13T14:12:46;4.07;;;2.90;;
9052;SDS011;4561;47.450;7.516;2023-05-13T14:16:07;3.73;;;3.43;;
9052;SDS011;4561;47.450;7.516;2023-05-13T14:19:30;3.77;;;3.47;;
9052;SDS011;4561;47.450;7.516;2023-05-13T14:22:50;3.30;;;3.00;;
9052;SDS011;4561;47.450;7.516;2023-05-13T14:26:11;2.67;;;2.47;;
9052;SDS011;4561;47.450;7.516;2023-05-13T14:29:34;3.23;;;3.03;;
9052;SDS011;4561;47.450;7.516;2023-05-13T14:32:56;3.30;;;3.10;;
9052;SDS011;4561;47.450;7.516;2023-05-13T14:36:19;3.43;;;3.23;;
9052;SDS011;4561;47.450;7.516;2023-05-13T14:39:45;2.70;;;2.50;;
9052;SDS011;4561;47.450;7.516;2023-05-13T14:43:10;2.90;;;2.70;;
9052;SDS011;4561;47.450;7.516;2023-05-13T14:46:33;3.03;;;2.73;;
9052;SDS011;4561;47.450;7.516;2023-05-13T14:49:56;3.60;;;2.83;;
9052;SDS011;4561;47.450;7.516;2023-05-13T14:53:20;3.60;;;3.30;;
9052;SDS011;4561;47.450;7.516;2023-05-13T14:56:41;2.60;;;2.40;;
9052;SDS011;4561;47.450;7.516;2023-05-13T15:00:03;2.30;;;2.10;;
9052;SDS011;4561;47.450;7.516;2023-05-13T15:03:24;2.17;;;2.07;;
9052;SDS011;4561;47.450;7.516;2023-05-13T15:06:47;3.03;;;2.70;;
9052;SDS011;4561;47.450;7.516;2023-05-13T15:10:08;2.80;;;1.90;;
9052;SDS011;4561;47.450;7.516;2023-05-13T15:13:28;2.10;;;1.90;;
9052;SDS011;4561;47.450;7.516;2023-05-13T15:16:55;2.90;;;1.97;;
9052;SDS011;4561;47.450;7.516;2023-05-13T15:20:16;1.97;;;1.70;;
9052;SDS011;4561;47.450;7.516;2023-05-13T15:23:36;1.90;;;1.80;;
9052;SDS011;4561;47.450;7.516;2023-05-13T15:26:56;2.00;;;1.73;;
9052;SDS011;4561;47.450;7.516;2023-05-13T15:30:19;1.90;;;1.80;;
9052;SDS011;4561;47.450;7.516;2023-05-13T15:33:40;1.57;;;1.47;;
9052;SDS011;4561;47.450;7.516;2023-05-13T15:37:03;1.93;;;1.73;;
9052;SDS011;4561;47.450;7.516;2023-05-13T15:40:24;1.70;;;1.60;;
9052;SDS011;4561;47.450;7.516;2023-05-13T15:43:46;1.33;;;1.23;;
9052;SDS011;4561;47.450;7.516;2023-05-13T15:47:07;1.40;;;1.30;;
9052;SDS011;4561;47.450;7.516;2023-05-13T15:50:27;1.50;;;1.40;;
9052;SDS011;4561;47.450;7.516;2023-05-13T15:53:48;1.57;;;1.47;;
9052;SDS011;4561;47.450;7.516;2023-05-13T15:57:11;1.90;;;1.80;;
9052;SDS011;4561;47.450;7.516;2023-05-13T16:00:32;1.60;;;1.50;;
9052;SDS011;4561;47.450;7.516;2023-05-13T16:03:55;2.10;;;2.00;;
9052;SDS011;4561;47.450;7.516;2023-05-13T16:07:15;2.10;;;2.00;;
9052;SDS011;4561;47.450;7.516;2023-05-13T16:10:36;1.67;;;1.57;;
9052;SDS011;4561;47.450;7.516;2023-05-13T16:13:56;1.67;;;1.57;;
9052;SDS011;4561;47.450;7.516;2023-05-13T16:17:17;2.67;;;2.10;;
9052;SDS011;4561;47.450;7.516;2023-05-13T16:20:37;1.90;;;1.80;;
9052;SDS011;4561;47.450;7.516;2023-05-13T16:23:58;2.60;;;2.40;;
9052;SDS011;4561;47.450;7.516;2023-05-13T16:27:18;3.03;;;1.53;;
9052;SDS011;4561;47.450;7.516;2023-05-13T16:30:39;1.50;;;1.40;;
9052;SDS011;4561;47.450;7.516;2023-05-13T16:34:03;1.73;;;1.63;;
9052;SDS011;4561;47.450;7.516;2023-05-13T16:37:24;1.80;;;1.70;;
9052;SDS011;4561;47.450;7.516;2023-05-13T16:40:44;1.93;;;1.73;;
9052;SDS011;4561;47.450;7.516;2023-05-13T16:44:05;1.53;;;1.43;;
9052;SDS011;4561;47.450;7.516;2023-05-13T16:47:25;1.70;;;1.60;;
9052;SDS011;4561;47.450;7.516;2023-05-13T16:50:45;2.00;;;1.90;;
9052;SDS011;4561;47.450;7.516;2023-05-13T16:54:06;2.17;;;1.60;;
9052;SDS011;4561;47.450;7.516;2023-05-13T16:57:27;2.03;;;1.93;;
9052;SDS011;4561;47.450;7.516;2023-05-13T17:00:47;2.30;;;2.00;;
9052;SDS011;4561;47.450;7.516;2023-05-13T17:04:10;2.80;;;1.90;;
9052;SDS011;4561;47.450;7.516;2023-05-13T17:07:31;2.30;;;2.10;;
9052;SDS011;4561;47.450;7.516;2023-05-13T17:10:51;2.60;;;2.40;;
9052;SDS011;4561;47.450;7.516;2023-05-13T17:14:14;3.00;;;2.80;;
9052;SDS011;4561;47.450;7.516;2023-05-13T17:17:35;4.40;;;3.67;;
9052;SDS011;4561;47.450;7.516;2023-05-13T17:20:55;3.97;;;3.67;;
9052;SDS011;4561;47.450;7.516;2023-05-13T17:24:22;4.57;;;4.17;;
9052;SDS011;4561;47.450;7.516;2023-05-13T17:27:43;5.83;;;5.10;;
9052;SDS011;4561;47.450;7.516;2023-05-13T17:31:03;6.17;;;5.50;;
9052;SDS011;4561;47.450;7.516;2023-05-13T17:34:24;6.70;;;6.07;;
9052;SDS011;4561;47.450;7.516;2023-05-13T17:37:44;7.20;;;6.60;;
9052;SDS011;4561;47.450;7.516;2023-05-13T17:41:04;7.13;;;6.43;;
9052;SDS011;4561;47.450;7.516;2023-05-13T17:44:27;6.73;;;5.97;;
9052;SDS011;4561;47.450;7.516;2023-05-13T17:47:48;11.77;;;10.57;;
9052;SDS011;4561;47.450;7.516;2023-05-13T17:51:09;9.20;;;8.27;;
9052;SDS011;4561;47.450;7.516;2023-05-13T17:54:29;7.93;;;7.13;;
9052;SDS011;4561;47.450;7.516;2023-05-13T17:57:52;9.60;;;8.60;;
9052;SDS011;4561;47.450;7.516;2023-05-13T18:01:14;8.43;;;7.63;;
9052;SDS011;4561;47.450;7.516;2023-05-13T18:04:37;9.57;;;8.03;;
9052;SDS011;4561;47.450;7.516;2023-05-13T18:07:57;7.90;;;7.20;;
9052;SDS011;4561;47.450;7.516;2023-05-13T18:11:18;8.20;;;7.40;;
9052;SDS011;4561;47.450;7.516;2023-05-13T18:14:45;8.73;;;8.03;;
9052;SDS011;4561;47.450;7.516;2023-05-13T18:18:05;8.43;;;7.73;;
9052;SDS011;4561;47.450;7.516;2023-05-13T18:21:28;12.03;;;7.97;;
9052;SDS011;4561;47.450;7.516;2023-05-13T18:24:49;8.77;;;7.97;;
9052;SDS011;4561;47.450;7.516;2023-05-13T18:28:13;8.13;;;7.33;;
9052;SDS011;4561;47.450;7.516;2023-05-13T18:31:33;8.30;;;7.07;;
9052;SDS011;4561;47.450;7.516;2023-05-13T18:34:56;8.47;;;7.67;;
9052;SDS011;4561;47.450;7.516;2023-05-13T18:38:19;8.50;;;7.70;;
9052;SDS011;4561;47.450;7.516;2023-05-13T18:41:39;7.37;;;6.77;;
9052;SDS011;4561;47.450;7.516;2023-05-13T18:45:00;7.67;;;6.97;;
9052;SDS011;4561;47.450;7.516;2023-05-13T18:48:22;7.80;;;7.10;;
9052;SDS011;4561;47.450;7.516;2023-05-13T18:51:44;7.77;;;7.07;;
9052;SDS011;4561;47.450;7.516;2023-05-13T18:55:04;8.30;;;7.60;;
9052;SDS011;4561;47.450;7.516;2023-05-13T18:58:25;7.83;;;7.13;;
9052;SDS011;4561;47.450;7.516;2023-05-13T19:01:47;8.23;;;7.50;;
9052;SDS011;4561;47.450;7.516;2023-05-13T19:05:10;9.07;;;8.20;;
9052;SDS011;4561;47.450;7.516;2023-05-13T19:08:33;8.13;;;7.43;;
9052;SDS011;4561;47.450;7.516;2023-05-13T19:11:58;8.17;;;7.37;;
9052;SDS011;4561;47.450;7.516;2023-05-13T19:15:19;7.67;;;6.97;;
9052;SDS011;4561;47.450;7.516;2023-05-13T19:18:44;7.50;;;6.90;;
9052;SDS011;4561;47.450;7.516;2023-05-13T19:22:04;8.00;;;7.30;;
9052;SDS011;4561;47.450;7.516;2023-05-13T19:25:25;8.97;;;8.17;;
9052;SDS011;4561;47.450;7.516;2023-05-13T19:28:45;8.73;;;7.93;;
9052;SDS011;4561;47.450;7.516;2023-05-13T19:32:08;8.73;;;7.93;;
9052;SDS011;4561;47.450;7.516;2023-05-13T19:35:28;8.67;;;7.97;;
9052;SDS011;4561;47.450;7.516;2023-05-13T19:38:49;9.03;;;8.23;;
9052;SDS011;4561;47.450;7.516;2023-05-13T19:42:10;9.07;;;8.17;;
9052;SDS011;4561;47.450;7.516;2023-05-13T19:45:30;8.97;;;8.07;;
9052;SDS011;4561;47.450;7.516;2023-05-13T19:48:51;8.23;;;7.43;;
9052;SDS011;4561;47.450;7.516;2023-05-13T19:52:11;8.10;;;7.40;;
9052;SDS011;4561;47.450;7.516;2023-05-13T19:55:35;7.90;;;7.20;;
9052;SDS011;4561;47.450;7.516;2023-05-13T19:58:55;8.23;;;7.13;;
9052;SDS011;4561;47.450;7.516;2023-05-13T20:02:15;8.13;;;7.37;;
9052;SDS011;4561;47.450;7.516;2023-05-13T20:05:36;8.37;;;7.57;;
9052;SDS011;4561;47.450;7.516;2023-05-13T20:08:56;9.40;;;8.40;;
9052;SDS011;4561;47.450;7.516;2023-05-13T20:12:20;8.97;;;8.20;;
9052;SDS011;4561;47.450;7.516;2023-05-13T20:15:40;8.20;;;7.40;;
9052;SDS011;4561;47.450;7.516;2023-05-13T20:19:03;9.57;;;8.67;;
9052;SDS011;4561;47.450;7.516;2023-05-13T20:22:26;8.27;;;7.57;;
9052;SDS011;4561;47.450;7.516;2023-05-13T20:25:46;9.00;;;8.10;;
9052;SDS011;4561;47.450;7.516;2023-05-13T20:29:07;9.10;;;8.30;;
9052;SDS011;4561;47.450;7.516;2023-05-13T20:32:31;9.80;;;8.90;;
9052;SDS011;4561;47.450;7.516;2023-05-13T20:35:51;9.20;;;8.30;;
9052;SDS011;4561;47.450;7.516;2023-05-13T20:39:12;9.53;;;8.63;;
9052;SDS011;4561;47.450;7.516;2023-05-13T20:42:32;9.23;;;8.43;;
9052;SDS011;4561;47.450;7.516;2023-05-13T20:45:53;9.13;;;8.33;;
9052;SDS011;4561;47.450;7.516;2023-05-13T20:49:16;9.00;;;8.20;;
9052;SDS011;4561;47.450;7.516;2023-05-13T20:52:39;9.67;;;8.83;;
9052;SDS011;4561;47.450;7.516;2023-05-13T20:56:00;9.30;;;8.50;;
9052;SDS011;4561;47.450;7.516;2023-05-13T20:59:24;9.47;;;8.57;;
9052;SDS011;4561;47.450;7.516;2023-05-13T21:02:44;9.23;;;8.33;;
9052;SDS011;4561;47.450;7.516;2023-05-13T21:06:05;11.63;;;8.87;;
9052;SDS011;4561;47.450;7.516;2023-05-13T21:09:30;9.13;;;8.33;;